createdAt,value
2023-09-26T00:01:56.153Z,68.99
2023-09-26T00:04:22.859Z,69.21
2023-09-26T00:06:49.578Z,70.46
2023-09-26T00:09:16.200Z,69.83
2023-09-26T00:11:42.756Z,69.64
2023-09-26T00:14:09.368Z,70.13
2023-09-26T00:16:36.112Z,70.10
2023-09-26T00:19:02.799Z,70.44
2023-09-26T00:21:29.426Z,70.38
2023-09-26T00:23:56.104Z,71.05
2023-09-26T00:26:22.709Z,71.12
2023-09-26T00:28:49.271Z,71.11
2023-09-26T00:31:15.938Z,71.48
2023-09-26T00:33:42.611Z,72.11
2023-09-26T00:36:10.268Z,71.57
2023-09-26T00:38:37.251Z,71.24
2023-09-26T00:41:04.105Z,71.56
2023-09-26T00:43:31.858Z,71.35
2023-09-26T00:46:01.364Z,71.69
2023-09-26T00:48:28.673Z,71.19
2023-09-26T00:50:56.691Z,71.30
2023-09-26T00:53:26.026Z,72.27
2023-09-26T00:55:55.624Z,71.98
2023-09-26T00:58:26.676Z,72.56
2023-09-26T01:00:54.053Z,72.12
2023-09-26T01:03:21.976Z,72.38
2023-09-26T01:08:30.963Z,73.75
2023-09-26T01:11:00.576Z,74.52
2023-09-26T01:13:27.223Z,74.56
2023-09-26T01:15:53.896Z,73.77
2023-09-26T01:18:20.773Z,73.56
2023-09-26T01:20:47.500Z,73.56
2023-09-26T01:23:16.228Z,74.80
2023-09-26T01:25:44.112Z,73.98
2023-09-26T01:28:14.846Z,73.66
2023-09-26T01:30:41.666Z,73.66
2023-09-26T01:33:09.840Z,73.71
2023-09-26T01:35:36.539Z,73.85
2023-09-26T01:38:03.210Z,74.16
2023-09-26T01:40:29.797Z,73.70
2023-09-26T01:42:56.549Z,73.24
2023-09-26T01:45:23.231Z,73.16
2023-09-26T01:47:51.625Z,73.17
2023-09-26T01:50:20.201Z,73.95
2023-09-26T01:52:47.628Z,74.65
2023-09-26T01:55:18.482Z,75.59
2023-09-26T01:57:45.725Z,76.10
2023-09-26T02:00:13.466Z,75.92
2023-09-26T02:02:46.004Z,74.66
2023-09-26T02:05:21.345Z,74.18
2023-09-26T02:07:48.985Z,74.40
2023-09-26T02:10:16.918Z,75.03
2023-09-26T02:12:46.892Z,74.94
2023-09-26T02:15:14.187Z,74.82
2023-09-26T02:17:42.010Z,74.56
2023-09-26T02:20:15.162Z,73.58
2023-09-26T02:22:50.328Z,73.75
2023-09-26T02:25:18.136Z,73.32
2023-09-26T02:27:44.848Z,74.01
2023-09-26T02:30:14.069Z,73.93
2023-09-26T02:32:40.955Z,73.80
2023-09-26T02:35:09.784Z,73.43
2023-09-26T02:37:36.988Z,73.25
2023-09-26T02:40:04.557Z,73.39
2023-09-26T02:42:31.090Z,73.28
2023-09-26T02:44:57.637Z,72.69
2023-09-26T02:47:24.167Z,71.85
2023-09-26T02:49:50.702Z,71.97
2023-09-26T02:52:17.342Z,72.04
2023-09-26T02:54:43.949Z,72.46
2023-09-26T02:57:10.556Z,72.92
2023-09-26T02:59:37.238Z,73.33
2023-09-26T03:02:03.943Z,73.53
2023-09-26T03:04:30.638Z,73.91
2023-09-26T03:06:57.313Z,73.75
2023-09-26T03:09:23.984Z,74.10
2023-09-26T03:11:50.548Z,73.91
2023-09-26T03:14:19.431Z,73.54
2023-09-26T03:16:46.386Z,74.28
2023-09-26T03:19:13.315Z,73.87
2023-09-26T03:21:39.965Z,73.90
2023-09-26T03:24:07.014Z,73.70
2023-09-26T03:26:33.576Z,73.86
2023-09-26T03:29:00.205Z,73.50
2023-09-26T03:31:27.005Z,73.02
2023-09-26T03:33:53.789Z,73.79
2023-09-26T03:36:21.695Z,73.97
2023-09-26T03:38:48.321Z,74.98
2023-09-26T03:41:14.962Z,74.33
2023-09-26T03:43:41.509Z,74.28
2023-09-26T03:46:09.580Z,73.67
2023-09-26T03:48:36.810Z,74.54
2023-09-26T03:51:14.488Z,74.53
2023-09-26T03:53:42.574Z,74.70
2023-09-26T03:56:09.610Z,73.50
2023-09-26T03:58:37.233Z,73.55
2023-09-26T04:01:12.499Z,73.43
2023-09-26T04:03:40.878Z,74.03
2023-09-26T04:06:07.737Z,74.13
2023-09-26T04:08:34.476Z,74.45
2023-09-26T04:11:01.128Z,75.51
2023-09-26T04:13:27.968Z,75.61
2023-09-26T04:15:56.270Z,75.11
2023-09-26T04:18:24.096Z,74.98
2023-09-26T04:20:51.424Z,74.17
2023-09-26T04:23:18.072Z,74.63
2023-09-26T04:25:45.156Z,74.71
2023-09-26T04:28:11.902Z,74.25
2023-09-26T04:30:40.137Z,74.73
2023-09-26T04:33:08.517Z,74.71
2023-09-26T04:35:36.244Z,73.81
2023-09-26T04:38:04.589Z,74.46
2023-09-26T04:40:31.708Z,74.61
2023-09-26T04:43:03.746Z,74.53
2023-09-26T04:45:31.843Z,74.12
2023-09-26T04:47:59.725Z,74.65
2023-09-26T04:50:27.718Z,74.67
2023-09-26T04:52:54.401Z,74.62
2023-09-26T04:55:20.980Z,74.01
2023-09-26T04:57:47.754Z,74.62
2023-09-26T05:00:14.775Z,75.24
2023-09-26T05:02:41.391Z,74.76
2023-09-26T05:05:08.320Z,75.17
2023-09-26T05:07:34.988Z,75.06
2023-09-26T05:10:01.838Z,74.63
2023-09-26T05:12:29.719Z,75.31
2023-09-26T05:14:56.889Z,75.55
2023-09-26T05:17:23.906Z,75.42
2023-09-26T05:19:50.591Z,75.05
2023-09-26T05:22:17.315Z,75.44
2023-09-26T05:24:44.148Z,74.58
2023-09-26T05:27:10.764Z,74.81
2023-09-26T05:29:37.383Z,74.76
2023-09-26T05:32:04.167Z,74.32
2023-09-26T05:34:30.839Z,74.59
2023-09-26T05:36:57.512Z,74.52
2023-09-26T05:39:24.273Z,74.09
2023-09-26T05:41:50.893Z,74.36
2023-09-26T06:24:18.854Z,71.97
2023-09-26T06:26:45.415Z,71.66
2023-09-26T06:29:12.032Z,71.85
2023-09-26T06:31:40.083Z,71.41
2023-09-26T06:34:06.720Z,71.16
2023-09-26T06:36:33.491Z,71.06
2023-09-26T06:39:00.323Z,70.65
2023-09-26T06:41:26.989Z,70.76
2023-09-26T06:43:53.691Z,69.87
2023-09-26T06:46:20.542Z,69.61
2023-09-26T06:48:47.469Z,69.75
2023-09-26T06:51:14.188Z,69.83
2023-09-26T06:53:42.164Z,69.77
2023-09-26T06:56:09.577Z,69.53
2023-09-26T06:58:37.768Z,68.86
2023-09-26T07:01:04.529Z,67.90
2023-09-26T07:03:31.177Z,68.05
2023-09-26T07:05:57.882Z,66.93
2023-09-26T07:08:24.711Z,66.86
2023-09-26T07:10:51.790Z,66.21
2023-09-26T07:13:44.239Z,66.37
2023-09-26T07:16:06.708Z,64.49
2023-09-26T07:18:35.007Z,63.61
2023-09-26T07:21:02.029Z,61.85
2023-09-26T07:23:28.567Z,61.91
2023-09-26T07:26:16.133Z,59.96
2023-09-26T07:28:44.595Z,58.77
2023-09-26T07:31:16.974Z,57.69
2023-09-26T07:33:45.987Z,58.71
2023-09-26T07:36:12.831Z,57.67
2023-09-26T07:38:39.404Z,56.17
2023-09-26T07:41:06.018Z,55.79
2023-09-26T07:43:32.955Z,54.71
2023-09-26T07:46:07.066Z,55.28
2023-09-26T07:48:34.540Z,55.22
2023-09-26T07:51:02.093Z,55.51
2023-09-26T07:53:28.749Z,55.22
2023-09-26T07:55:58.791Z,55.32
2023-09-26T07:58:26.513Z,53.09
2023-09-26T08:00:57.675Z,53.61
2023-09-26T08:03:24.255Z,52.81
2023-09-26T08:05:50.833Z,52.76
2023-09-26T08:08:17.406Z,53.39
2023-09-26T08:10:44.192Z,54.02
2023-09-26T08:13:10.919Z,53.72
2023-09-26T08:15:37.521Z,52.85
2023-09-26T08:18:04.635Z,52.50
2023-09-26T08:20:31.614Z,52.40
2023-09-26T08:22:58.408Z,52.88
2023-09-26T08:25:27.135Z,52.47
2023-09-26T08:27:53.955Z,52.45
2023-09-26T08:30:20.973Z,52.04
2023-09-26T08:32:49.511Z,52.10
2023-09-26T08:35:20.779Z,51.86
2023-09-26T08:37:54.614Z,51.81
2023-09-26T08:40:24.569Z,50.17
2023-09-26T08:42:55.000Z,51.77
2023-09-26T08:45:23.079Z,54.21
2023-09-26T08:47:49.869Z,55.00
2023-09-26T08:50:16.595Z,52.50
2023-09-26T08:52:43.330Z,52.28
2023-09-26T08:55:10.442Z,51.32
2023-09-26T08:57:38.267Z,51.61
2023-09-26T09:00:10.209Z,49.07
2023-09-26T09:02:37.171Z,48.92
2023-09-26T09:05:04.041Z,48.99
2023-09-26T09:07:31.046Z,48.22
2023-09-26T09:10:06.660Z,48.76
2023-09-26T09:12:34.345Z,47.39
2023-09-26T09:15:01.081Z,48.09
2023-09-26T09:17:39.826Z,47.92
2023-09-26T09:20:07.024Z,47.33
2023-09-26T09:22:33.615Z,47.73
2023-09-26T09:25:00.272Z,48.31
2023-09-26T09:27:46.295Z,47.05
2023-09-26T09:30:14.319Z,47.58
2023-09-26T09:32:42.468Z,47.49
2023-09-26T09:35:15.552Z,47.58
2023-09-26T09:37:43.822Z,48.02
2023-09-26T09:40:11.109Z,48.14
2023-09-26T09:42:37.869Z,48.45
2023-09-26T09:45:04.871Z,48.15
2023-09-26T09:47:37.664Z,48.18
2023-09-26T09:50:06.441Z,48.99
2023-09-26T09:52:35.093Z,48.77
2023-09-26T09:55:08.203Z,47.95
2023-09-26T09:57:42.729Z,47.76
2023-09-26T10:00:09.615Z,47.72
2023-09-26T10:02:44.917Z,47.39
2023-09-26T10:05:24.386Z,47.51
2023-09-26T10:07:54.112Z,48.66
2023-09-26T10:10:22.925Z,48.16
2023-09-26T10:13:19.539Z,47.30
2023-09-26T10:16:03.390Z,46.98
2023-09-26T10:18:30.336Z,47.98
2023-09-26T10:20:59.157Z,49.14
2023-09-26T10:23:25.836Z,50.46
2023-09-26T10:25:52.400Z,50.69
2023-09-26T10:28:20.526Z,50.52
2023-09-26T10:30:55.618Z,50.93
2023-09-26T10:36:15.593Z,52.11
2023-09-26T10:38:42.688Z,51.35
2023-09-26T10:43:47.172Z,50.60
2023-09-26T10:46:25.987Z,51.25
2023-09-26T10:48:52.832Z,51.19
2023-09-26T10:51:19.588Z,51.23
2023-09-26T10:53:46.161Z,51.33
2023-09-26T10:56:13.619Z,50.67
2023-09-26T10:58:42.713Z,51.47
2023-09-26T11:01:09.621Z,50.66
2023-09-26T11:03:36.281Z,50.17
2023-09-26T11:06:03.995Z,50.00
2023-09-26T11:08:32.197Z,49.84
2023-09-26T11:10:59.012Z,49.58
2023-09-26T11:16:13.082Z,49.09
2023-09-26T11:18:39.883Z,48.41
2023-09-26T11:21:26.278Z,47.46
2023-09-26T11:23:53.037Z,48.17
2023-09-26T11:26:19.598Z,47.11
2023-09-26T11:28:46.267Z,48.10
2023-09-26T11:31:14.138Z,47.41
2023-09-26T11:33:40.849Z,47.19
2023-09-26T11:36:07.828Z,46.28
2023-09-26T11:38:46.346Z,45.85
2023-09-26T11:41:13.487Z,45.78
2023-09-26T11:43:42.182Z,46.52
2023-09-26T11:46:09.159Z,46.09
2023-09-26T11:48:35.979Z,46.92
2023-09-26T11:51:02.628Z,47.12
2023-09-26T11:53:29.329Z,47.17
2023-09-26T11:55:56.006Z,47.50
2023-09-26T11:58:22.715Z,47.97
2023-09-26T12:00:49.444Z,47.09
2023-09-26T12:03:16.317Z,47.24
2023-09-26T12:05:43.330Z,47.22
2023-09-26T12:08:10.083Z,45.33
2023-09-26T12:10:38.428Z,45.74
2023-09-26T12:13:06.509Z,44.69
2023-09-26T12:15:33.611Z,43.74
2023-09-26T12:18:02.077Z,42.95
2023-09-26T12:20:28.918Z,42.70
2023-09-26T12:22:57.466Z,41.48
2023-09-26T12:25:25.677Z,42.02
2023-09-26T12:27:53.268Z,42.29
2023-09-26T12:30:21.330Z,42.92
2023-09-26T12:32:49.419Z,42.60
2023-09-26T12:35:16.196Z,42.31
2023-09-26T12:37:44.711Z,42.24
2023-09-26T12:40:13.298Z,43.79
2023-09-26T12:42:41.119Z,42.60
2023-09-26T12:45:08.851Z,42.10
2023-09-26T12:47:35.766Z,40.46
2023-09-26T12:50:02.504Z,42.11
2023-09-26T12:52:29.446Z,40.99
2023-09-26T12:54:56.242Z,40.39
2023-09-26T12:57:22.985Z,39.17
2023-09-26T12:59:54.371Z,40.06
2023-09-26T13:02:21.958Z,39.14
2023-09-26T13:04:48.853Z,39.60
2023-09-26T13:07:15.524Z,38.93
2023-09-26T13:09:42.230Z,38.73
2023-09-26T13:12:09.037Z,38.80
2023-09-26T13:14:35.799Z,38.33
2023-09-26T13:17:02.923Z,38.45
2023-09-26T13:19:30.405Z,38.68
2023-09-26T13:21:57.109Z,38.90
2023-09-26T13:24:23.908Z,38.21
2023-09-26T13:26:50.653Z,37.41
2023-09-26T13:29:18.512Z,37.40
2023-09-26T13:31:45.442Z,37.07
2023-09-26T13:34:12.163Z,37.10
2023-09-26T13:36:38.940Z,36.76
2023-09-26T13:39:06.254Z,36.59
2023-09-26T13:41:33.012Z,36.68
2023-09-26T13:43:59.742Z,36.60
2023-09-26T13:46:26.644Z,37.04
2023-09-26T13:48:53.446Z,36.90
2023-09-26T13:51:20.225Z,35.82
2023-09-26T13:53:46.859Z,35.29
2023-09-26T13:56:13.545Z,34.43
2023-09-26T13:58:40.409Z,34.48
2023-09-26T14:01:07.229Z,34.11
2023-09-26T14:03:33.983Z,34.09
2023-09-26T14:06:01.826Z,32.75
2023-09-26T14:08:28.600Z,32.43
2023-09-26T14:10:55.307Z,32.30
2023-09-26T14:13:25.404Z,31.35
2023-09-26T14:15:53.115Z,31.42
2023-09-26T14:18:21.326Z,30.53
2023-09-26T14:20:50.955Z,29.54
2023-09-26T14:23:27.429Z,28.80
2023-09-26T14:25:55.395Z,27.42
2023-09-26T14:28:22.162Z,27.36
2023-09-26T14:30:48.909Z,26.52
2023-09-26T14:33:17.409Z,25.76
2023-09-26T14:35:45.075Z,25.50
2023-09-26T14:38:12.059Z,24.43
2023-09-26T14:40:39.236Z,24.44
2023-09-26T14:43:06.437Z,23.69
2023-09-26T14:45:39.613Z,23.34
2023-09-26T14:48:15.399Z,23.49
2023-09-26T14:50:42.245Z,23.14
2023-09-26T14:53:09.021Z,23.11
2023-09-26T14:55:35.791Z,23.12
2023-09-26T14:58:02.517Z,23.19
2023-09-26T15:00:29.108Z,22.96
2023-09-26T15:02:55.935Z,23.31
2023-09-26T15:05:22.700Z,23.02
2023-09-26T15:07:49.475Z,22.85
2023-09-26T15:10:16.164Z,22.78
2023-09-26T15:12:42.810Z,22.57
2023-09-26T15:15:09.804Z,22.64
2023-09-26T15:17:36.519Z,22.59
2023-09-26T15:20:03.321Z,22.51
2023-09-26T15:22:30.159Z,22.62
2023-09-26T15:24:56.904Z,23.02
2023-09-26T15:27:23.625Z,23.12
2023-09-26T15:29:50.374Z,22.80
2023-09-26T15:32:17.155Z,22.20
2023-09-26T15:34:45.536Z,22.04
2023-09-26T15:37:12.228Z,21.98
2023-09-26T15:39:39.152Z,21.98
2023-09-26T15:42:16.989Z,22.45
2023-09-26T15:44:43.954Z,22.63
2023-09-26T15:47:10.736Z,22.62
2023-09-26T15:49:49.279Z,22.75
2023-09-26T15:52:18.104Z,23.44
2023-09-26T15:54:44.971Z,23.25
2023-09-26T15:57:12.144Z,22.92
2023-09-26T15:59:38.991Z,23.29
2023-09-26T16:02:06.518Z,22.69
2023-09-26T16:04:34.987Z,22.94
2023-09-26T16:07:01.945Z,23.34
2023-09-26T16:09:28.556Z,24.07
2023-09-26T16:11:55.297Z,24.15
2023-09-26T16:14:22.105Z,24.17
2023-09-26T16:16:48.940Z,24.97
2023-09-26T16:19:17.103Z,24.66
2023-09-26T16:21:45.305Z,26.03
2023-09-26T16:24:12.120Z,26.41
2023-09-26T16:26:39.190Z,26.93
2023-09-26T16:29:06.301Z,28.28
2023-09-26T16:31:33.744Z,28.63
2023-09-26T16:34:00.755Z,29.06
2023-09-26T16:36:27.702Z,29.40
2023-09-26T16:38:56.083Z,29.82
2023-09-26T16:41:22.719Z,30.52
2023-09-26T16:43:49.593Z,30.09
2023-09-26T16:46:16.371Z,31.17
2023-09-26T16:48:43.329Z,32.39
2023-09-26T16:51:10.223Z,33.44
2023-09-26T16:53:39.914Z,33.98
2023-09-26T16:56:07.282Z,34.69
2023-09-26T16:58:34.440Z,34.57
2023-09-26T17:01:12.936Z,34.66
2023-09-26T17:03:41.975Z,35.73
2023-09-26T17:06:11.391Z,35.95
2023-09-26T17:08:38.747Z,36.11
2023-09-26T17:11:06.985Z,36.62
2023-09-26T17:13:35.662Z,37.30
2023-09-26T17:16:02.713Z,38.23
2023-09-26T17:18:29.870Z,38.17
2023-09-26T17:20:56.671Z,38.99
2023-09-26T17:23:23.383Z,39.04
2023-09-26T17:25:50.448Z,39.79
2023-09-26T17:28:17.787Z,40.03
2023-09-26T17:33:25.947Z,40.90
2023-09-26T17:35:53.267Z,41.36
2023-09-26T17:38:20.247Z,41.70
2023-09-26T17:40:47.078Z,41.97
2023-09-26T17:43:13.774Z,42.50
2023-09-26T17:45:41.143Z,42.66
2023-09-26T17:48:08.267Z,42.87
2023-09-26T17:50:35.174Z,43.66
2023-09-26T17:53:02.007Z,43.73
2023-09-26T17:55:29.013Z,44.25
2023-09-26T17:57:55.778Z,44.40
2023-09-26T18:00:59.908Z,44.71
2023-09-26T18:03:23.483Z,45.85
2023-09-26T18:05:50.873Z,46.07
2023-09-26T18:08:17.720Z,46.00
2023-09-26T18:10:45.534Z,46.40
2023-09-26T18:13:12.488Z,47.22
2023-09-26T18:15:39.254Z,47.54
2023-09-26T18:18:06.272Z,48.09
2023-09-26T18:20:33.479Z,47.57
2023-09-26T18:23:00.481Z,48.04
2023-09-26T18:25:27.550Z,48.21
2023-09-26T18:27:54.528Z,48.37
2023-09-26T18:30:21.276Z,48.11
2023-09-26T18:32:48.362Z,48.58
2023-09-26T18:35:15.431Z,48.80
2023-09-26T18:37:42.430Z,48.61
2023-09-26T18:40:10.415Z,48.33
2023-09-26T18:42:37.258Z,48.96
2023-09-26T18:45:04.824Z,48.81
2023-09-26T18:47:31.928Z,49.49
2023-09-26T18:49:58.727Z,49.32
2023-09-26T18:52:26.664Z,49.05
2023-09-26T18:54:53.527Z,49.30
2023-09-26T18:57:20.268Z,49.27
2023-09-26T18:59:47.021Z,48.56
2023-09-26T19:02:14.042Z,48.72
2023-09-26T19:04:41.160Z,48.49
2023-09-26T19:07:07.919Z,49.47
2023-09-26T19:09:35.276Z,50.06
2023-09-26T19:12:02.103Z,49.78
2023-09-26T19:14:28.882Z,49.18
2023-09-26T19:16:56.221Z,49.82
2023-09-26T19:19:23.238Z,50.32
2023-09-26T19:21:50.496Z,50.13
2023-09-26T19:24:20.374Z,50.67
2023-09-26T19:26:47.422Z,50.90
2023-09-26T19:29:14.288Z,50.90
2023-09-26T19:31:41.272Z,50.21
2023-09-26T19:34:08.376Z,51.07
2023-09-26T19:36:35.351Z,51.15
2023-09-26T19:39:02.641Z,51.63
2023-09-26T19:41:29.752Z,51.79
2023-09-26T19:43:56.722Z,52.22
2023-09-26T19:46:23.795Z,52.33
2023-09-26T19:48:54.395Z,52.66
2023-09-26T19:51:21.420Z,52.47
2023-09-26T19:53:48.333Z,53.08
2023-09-26T19:56:15.278Z,53.12
2023-09-26T19:58:42.326Z,53.79
2023-09-26T20:01:09.252Z,53.81
2023-09-26T20:03:36.529Z,53.36
2023-09-26T20:06:03.578Z,53.58
2023-09-26T20:08:30.499Z,53.92
2023-09-26T20:10:57.497Z,53.85
2023-09-26T20:13:24.259Z,54.34
2023-09-26T20:15:51.128Z,54.75
2023-09-26T20:18:17.814Z,55.14
2023-09-26T20:20:44.906Z,54.53
2023-09-26T20:23:11.848Z,54.71
2023-09-26T20:25:38.572Z,54.43
2023-09-26T20:28:06.412Z,54.62
2023-09-26T20:30:34.432Z,55.80
2023-09-26T20:33:13.329Z,55.89
2023-09-26T20:35:52.931Z,56.16
2023-09-26T20:38:22.337Z,55.94
2023-09-26T20:40:49.328Z,56.16
2023-09-26T20:43:17.958Z,56.11
2023-09-26T20:45:46.096Z,56.49
2023-09-26T20:48:16.053Z,56.94
2023-09-26T20:50:42.856Z,57.10
2023-09-26T20:53:09.743Z,56.87
2023-09-26T20:55:39.691Z,56.97
2023-09-26T20:58:09.467Z,56.87
2023-09-26T21:00:37.186Z,56.94
2023-09-26T21:03:04.736Z,56.65
2023-09-26T21:05:36.520Z,57.26
2023-09-26T21:08:03.459Z,57.29
2023-09-26T21:10:30.506Z,57.69
2023-09-26T21:12:57.629Z,57.45
2023-09-26T21:15:25.390Z,57.52
2023-09-26T21:17:52.658Z,57.46
2023-09-26T21:20:20.345Z,57.41
2023-09-26T21:22:47.309Z,57.49
2023-09-26T21:25:14.246Z,56.75
2023-09-26T21:27:41.635Z,57.84
2023-09-26T21:30:09.325Z,57.56
2023-09-26T21:32:36.499Z,57.30
2023-09-26T21:35:03.703Z,57.97
2023-09-26T21:37:30.454Z,58.08
2023-09-26T21:39:57.574Z,58.27
2023-09-26T21:42:24.337Z,57.93
2023-09-26T21:44:51.331Z,58.27
2023-09-26T21:47:18.237Z,58.52
2023-09-26T21:49:45.130Z,58.57
2023-09-26T21:52:11.941Z,58.62
2023-09-26T21:54:38.670Z,58.60
2023-09-26T21:57:05.597Z,58.55
2023-09-26T21:59:32.545Z,59.00
2023-09-26T22:01:59.508Z,59.17
2023-09-26T22:04:28.755Z,58.84
2023-09-26T22:06:55.634Z,58.89
2023-09-26T22:09:22.440Z,59.33
2023-09-26T22:11:49.368Z,59.17
2023-09-26T22:14:16.239Z,59.70
2023-09-26T22:16:42.918Z,59.99
2023-09-26T22:19:09.761Z,60.06
2023-09-26T22:21:36.786Z,59.90
2023-09-26T22:24:03.904Z,60.10
2023-09-26T22:26:30.711Z,59.76
2023-09-26T22:28:57.502Z,60.26
2023-09-26T22:31:24.423Z,60.27
2023-09-26T22:33:51.888Z,59.92
2023-09-26T22:36:19.905Z,59.91
2023-09-26T22:38:46.830Z,60.12
2023-09-26T22:41:13.613Z,59.77
2023-09-26T22:43:40.423Z,59.80
2023-09-26T22:46:07.103Z,59.85
2023-09-26T22:48:33.940Z,60.13
2023-09-26T22:51:00.859Z,59.80
2023-09-26T22:53:27.680Z,60.28
2023-09-26T22:55:54.444Z,60.26
2023-09-26T22:58:21.305Z,60.21
2023-09-26T23:00:48.246Z,59.86
2023-09-26T23:03:15.330Z,60.13
2023-09-26T23:05:42.138Z,60.20
2023-09-26T23:08:09.121Z,59.54
2023-09-26T23:10:35.994Z,59.41
2023-09-26T23:13:02.943Z,59.49
2023-09-26T23:15:29.791Z,59.68
2023-09-26T23:17:56.746Z,60.13
2023-09-26T23:20:23.523Z,59.91
2023-09-26T23:22:51.772Z,59.98
2023-09-26T23:25:18.787Z,59.87
2023-09-26T23:27:45.526Z,59.82
2023-09-26T23:30:13.567Z,60.12
2023-09-26T23:32:42.528Z,59.88
2023-09-26T23:35:10.123Z,60.43
2023-09-26T23:37:37.058Z,60.35
2023-09-26T23:40:04.049Z,60.85
2023-09-26T23:42:30.739Z,60.13
2023-09-26T23:44:57.447Z,60.22
2023-09-26T23:47:24.228Z,60.35
2023-09-26T23:49:51.066Z,60.47
2023-09-26T23:52:17.845Z,60.36
2023-09-26T23:54:44.605Z,60.29
2023-09-26T23:57:11.330Z,60.62
2023-09-26T23:59:38.085Z,60.22
